createdAt,value
2018-09-12T00:04:47.233Z,24.48
2018-09-12T00:09:50.522Z,24.48
2018-09-12T00:14:53.847Z,24.49
2018-09-12T00:19:57.159Z,24.47
2018-09-12T00:25:00.475Z,24.48
2018-09-12T00:30:03.910Z,24.44
2018-09-12T00:35:07.387Z,24.43
2018-09-12T00:40:10.682Z,24.42
2018-09-12T00:45:14.030Z,24.41
2018-09-12T00:50:17.346Z,24.41
2018-09-12T00:55:20.642Z,24.40
2018-09-12T01:00:24.003Z,24.41
2018-09-12T01:05:27.310Z,24.39
2018-09-12T01:10:30.640Z,24.38
2018-09-12T01:15:33.960Z,24.37
2018-09-12T01:20:37.270Z,24.36
2018-09-12T01:25:40.603Z,24.34
2018-09-12T01:30:44.031Z,24.35
2018-09-12T01:35:47.346Z,24.34
2018-09-12T01:40:50.785Z,24.33
2018-09-12T01:45:54.058Z,24.35
2018-09-12T01:50:57.363Z,24.31
2018-09-12T01:56:00.670Z,24.30
2018-09-12T02:01:03.954Z,24.29
2018-09-12T02:06:07.375Z,24.28
2018-09-12T02:11:10.714Z,24.27
2018-09-12T02:16:13.992Z,24.26
2018-09-12T02:21:17.294Z,24.25
2018-09-12T02:26:20.598Z,24.24
2018-09-12T02:31:23.892Z,24.24
2018-09-12T02:36:29.292Z,24.22
2018-09-12T02:41:32.573Z,24.21
2018-09-12T02:46:35.875Z,24.21
2018-09-12T02:51:39.165Z,24.18
2018-09-12T02:56:42.449Z,24.18
2018-09-12T03:01:45.727Z,24.17
2018-09-12T03:06:49.013Z,24.16
2018-09-12T03:11:52.319Z,24.12
2018-09-12T03:16:55.595Z,24.14
2018-09-12T03:21:58.878Z,24.12
2018-09-12T03:27:02.155Z,24.06
2018-09-12T03:32:05.431Z,24.06
2018-09-12T03:37:08.705Z,24.06
2018-09-12T03:42:11.994Z,24.06
2018-09-12T03:47:15.284Z,24.12
2018-09-12T03:52:18.571Z,24.18
2018-09-12T03:57:21.842Z,24.22
2018-09-12T04:02:25.131Z,24.16
2018-09-12T04:07:28.407Z,24.21
2018-09-12T04:12:31.690Z,24.24
2018-09-12T04:17:36.483Z,24.22
2018-09-12T04:22:39.770Z,24.22
2018-09-12T04:27:43.323Z,24.20
2018-09-12T04:32:46.606Z,24.21
2018-09-12T04:37:50.031Z,24.21
2018-09-12T04:42:53.434Z,24.19
2018-09-12T04:47:56.686Z,24.19
2018-09-12T04:52:59.965Z,24.20
2018-09-12T04:58:03.267Z,24.19
2018-09-12T05:03:06.558Z,24.19
2018-09-12T05:08:09.852Z,24.18
2018-09-12T05:13:13.158Z,24.17
2018-09-12T05:18:16.610Z,24.17
2018-09-12T05:23:19.906Z,24.17
2018-09-12T05:28:23.222Z,24.17
2018-09-12T05:33:26.497Z,24.16
2018-09-12T05:38:29.787Z,24.14
2018-09-12T05:43:33.062Z,24.14
2018-09-12T05:48:36.390Z,24.15
2018-09-12T05:53:39.678Z,24.15
2018-09-12T05:58:42.963Z,24.15
2018-09-12T06:03:46.251Z,24.17
2018-09-12T06:08:49.533Z,24.18
2018-09-12T06:13:52.820Z,24.11
2018-09-12T06:18:56.539Z,24.15
2018-09-12T06:23:59.897Z,24.17
2018-09-12T06:29:03.174Z,24.16
2018-09-12T06:34:06.494Z,24.19
2018-09-12T06:39:11.640Z,24.20
2018-09-12T06:44:14.934Z,24.19
2018-09-12T06:49:18.231Z,24.16
2018-09-12T06:54:21.510Z,24.05
2018-09-12T06:59:24.790Z,24.06
2018-09-12T07:04:28.073Z,23.97
2018-09-12T07:09:31.360Z,23.85
2018-09-12T07:14:34.634Z,23.78
2018-09-12T07:19:37.950Z,23.94
2018-09-12T07:24:41.295Z,23.95
2018-09-12T07:29:44.552Z,24.01
2018-09-12T07:34:47.879Z,24.03
2018-09-12T07:39:51.162Z,24.03
2018-09-12T07:44:54.505Z,24.08
2018-09-12T07:49:57.786Z,24.03
2018-09-12T07:55:01.075Z,23.96
2018-09-12T08:00:05.517Z,23.93
2018-09-12T08:05:08.830Z,23.96
2018-09-12T08:10:12.130Z,23.99
2018-09-12T08:15:15.409Z,24.01
2018-09-12T08:20:18.855Z,24.07
2018-09-12T08:25:22.223Z,24.14
2018-09-12T08:30:25.502Z,24.25
2018-09-12T08:35:28.794Z,24.30
2018-09-12T08:40:32.074Z,24.31
2018-09-12T08:45:35.346Z,24.35
2018-09-12T08:50:38.618Z,24.39
2018-09-12T08:55:41.899Z,24.43
2018-09-12T09:00:45.487Z,24.43
2018-09-12T09:05:48.769Z,24.48
2018-09-12T09:10:52.066Z,24.53
2018-09-12T09:15:55.341Z,24.57
2018-09-12T09:20:58.618Z,24.60
2018-09-12T09:26:01.991Z,24.65
2018-09-12T09:31:05.282Z,24.65
2018-09-12T09:36:08.566Z,24.59
2018-09-12T09:41:11.851Z,24.68
2018-09-12T09:46:15.121Z,24.71
2018-09-12T09:51:18.393Z,24.71
2018-09-12T09:56:21.661Z,24.70
2018-09-12T10:01:30.354Z,24.72
2018-09-12T10:06:39.070Z,24.80
2018-09-12T10:11:42.948Z,24.84
2018-09-12T10:16:46.245Z,24.84
2018-09-12T10:21:49.537Z,24.85
2018-09-12T10:26:52.813Z,24.86
2018-09-12T10:31:56.098Z,24.92
2018-09-12T10:36:59.377Z,24.89
2018-09-12T10:42:02.645Z,24.90
2018-09-12T10:47:06.033Z,24.91
2018-09-12T10:52:09.306Z,24.96
2018-09-12T10:57:12.589Z,24.94
2018-09-12T11:02:15.870Z,24.91
2018-09-12T11:07:19.139Z,24.97
2018-09-12T11:12:22.427Z,25.06
2018-09-12T11:17:25.710Z,25.04
2018-09-12T11:22:28.986Z,25.09
2018-09-12T11:27:32.266Z,25.06
2018-09-12T11:32:35.544Z,25.04
2018-09-12T11:37:38.831Z,25.03
2018-09-12T11:42:42.107Z,25.03
2018-09-12T11:47:45.386Z,25.02
2018-09-12T11:52:48.666Z,25.04
2018-09-12T11:57:51.943Z,25.04
2018-09-12T12:02:55.249Z,25.04
2018-09-12T12:07:58.533Z,25.05
2018-09-12T12:13:01.817Z,25.04
2018-09-12T12:18:05.095Z,25.05
2018-09-12T12:23:08.431Z,25.09
2018-09-12T12:28:11.695Z,25.11
2018-09-12T12:33:14.974Z,25.12
2018-09-12T12:38:18.260Z,25.13
2018-09-12T12:43:21.550Z,25.13
2018-09-12T12:48:24.831Z,25.16
2018-09-12T12:53:28.123Z,25.18
2018-09-12T12:58:31.414Z,25.25
2018-09-12T13:03:34.690Z,25.26
2018-09-12T13:08:37.982Z,25.28
2018-09-12T13:13:41.266Z,25.30
2018-09-12T13:18:44.627Z,25.29
2018-09-12T13:23:48.438Z,25.28
2018-09-12T13:28:51.859Z,25.37
2018-09-12T13:33:55.219Z,25.46
2018-09-12T13:38:58.518Z,25.53
2018-09-12T13:44:01.823Z,25.38
2018-09-12T13:49:06.063Z,25.54
2018-09-12T13:54:09.364Z,25.59
2018-09-12T13:59:12.665Z,25.58
2018-09-12T14:04:16.007Z,25.62
2018-09-12T14:09:19.346Z,25.66
2018-09-12T14:14:23.604Z,25.64
2018-09-12T14:19:26.924Z,25.66
2018-09-12T14:24:30.277Z,25.68
2018-09-12T14:29:33.586Z,25.69
2018-09-12T14:34:36.936Z,25.66
2018-09-12T14:39:40.247Z,25.61
2018-09-12T14:44:43.546Z,25.61
2018-09-12T14:49:47.458Z,25.61
2018-09-12T14:54:50.788Z,25.60
2018-09-12T14:59:54.082Z,25.60
2018-09-12T15:04:57.419Z,25.62
2018-09-12T15:10:00.754Z,25.64
2018-09-12T15:15:04.121Z,25.64
2018-09-12T15:20:08.014Z,25.64
2018-09-12T15:25:11.360Z,25.65
2018-09-12T15:30:14.687Z,25.67
2018-09-12T15:35:18.046Z,25.68
2018-09-12T15:40:21.434Z,25.68
2018-09-12T15:45:24.784Z,25.72
2018-09-12T15:50:28.106Z,25.75
2018-09-12T15:55:31.414Z,25.78
2018-09-12T16:00:34.995Z,25.80
2018-09-12T16:05:38.329Z,25.82
2018-09-12T16:10:41.697Z,25.88
2018-09-12T16:15:45.004Z,25.89
2018-09-12T16:20:48.386Z,25.88
2018-09-12T16:25:51.683Z,25.87
2018-09-12T16:30:55.140Z,25.87
2018-09-12T16:35:58.468Z,25.87
2018-09-12T16:41:01.796Z,25.85
2018-09-12T16:46:05.102Z,25.85
2018-09-12T16:51:08.415Z,25.87
2018-09-12T16:56:11.783Z,25.85
2018-09-12T17:01:15.101Z,25.85
2018-09-12T17:06:18.411Z,25.86
2018-09-12T17:11:21.854Z,25.82
2018-09-12T17:16:25.298Z,25.83
2018-09-12T17:21:29.185Z,25.81
2018-09-12T17:26:32.876Z,25.84
2018-09-12T17:31:36.234Z,25.81
2018-09-12T17:36:39.543Z,25.82
2018-09-12T17:41:43.178Z,25.80
2018-09-12T17:46:46.629Z,25.81
2018-09-12T17:51:50.146Z,25.80
2018-09-12T17:56:53.479Z,25.80
2018-09-12T18:01:56.838Z,25.80
2018-09-12T18:07:01.005Z,25.78
2018-09-12T18:12:04.318Z,25.79
2018-09-12T18:17:07.618Z,25.79
2018-09-12T18:22:11.021Z,25.76
2018-09-12T18:27:14.374Z,25.78
2018-09-12T18:32:17.683Z,25.74
2018-09-12T18:37:21.003Z,25.68
2018-09-12T18:42:24.346Z,25.67
2018-09-12T18:47:27.860Z,25.69
2018-09-12T18:52:31.408Z,25.70
2018-09-12T18:57:34.815Z,25.67
2018-09-12T19:02:38.128Z,25.61
2018-09-12T19:07:41.722Z,25.60
2018-09-12T19:12:45.235Z,25.60
2018-09-12T19:17:48.519Z,25.55
2018-09-12T19:22:51.814Z,25.45
2018-09-12T19:27:55.122Z,25.47
2018-09-12T19:32:58.437Z,25.49
2018-09-12T19:38:01.754Z,25.48
2018-09-12T19:43:05.099Z,25.49
2018-09-12T19:48:08.630Z,25.48
2018-09-12T19:53:11.941Z,25.47
2018-09-12T19:58:15.241Z,25.46
2018-09-12T20:03:18.551Z,25.45
2018-09-12T20:08:21.887Z,25.44
2018-09-12T20:13:25.403Z,25.43
2018-09-12T20:18:28.934Z,25.44
2018-09-12T20:23:32.287Z,25.41
2018-09-12T20:28:39.027Z,25.40
2018-09-12T20:33:42.398Z,25.40
2018-09-12T20:38:45.698Z,25.36
2018-09-12T20:43:49.036Z,25.34
2018-09-12T20:48:52.363Z,25.32
2018-09-12T20:53:55.733Z,25.34
2018-09-12T20:58:59.037Z,25.30
2018-09-12T21:04:02.338Z,25.32
2018-09-12T21:09:09.296Z,25.32
2018-09-12T21:14:12.703Z,25.30
2018-09-12T21:19:16.104Z,25.29
2018-09-12T21:24:19.426Z,25.27
2018-09-12T21:29:22.762Z,25.25
2018-09-12T21:34:26.217Z,25.23
2018-09-12T21:39:29.522Z,25.24
2018-09-12T21:44:32.818Z,25.21
2018-09-12T21:49:36.134Z,25.18
2018-09-12T21:54:39.581Z,25.17
2018-09-12T21:59:42.898Z,25.15
2018-09-12T22:04:46.267Z,25.15
2018-09-12T22:09:49.565Z,25.10
2018-09-12T22:14:52.854Z,25.09
2018-09-12T22:19:56.194Z,25.09
2018-09-12T22:24:59.502Z,25.03
2018-09-12T22:30:02.819Z,25.05
2018-09-12T22:35:06.401Z,25.03
2018-09-12T22:40:09.795Z,25.02
2018-09-12T22:45:13.074Z,24.99
2018-09-12T22:50:16.351Z,25.00
2018-09-12T22:55:19.650Z,24.98
2018-09-12T23:00:23.046Z,24.98
2018-09-12T23:05:26.318Z,24.94
2018-09-12T23:10:29.618Z,24.95
2018-09-12T23:15:32.914Z,24.90
2018-09-12T23:20:36.193Z,24.92
2018-09-12T23:25:39.482Z,24.92
2018-09-12T23:30:42.762Z,24.90
2018-09-12T23:35:46.062Z,24.85
2018-09-12T23:40:49.338Z,24.83
2018-09-12T23:45:52.710Z,24.82
2018-09-12T23:50:55.937Z,24.84
2018-09-12T23:55:59.222Z,24.84
